メインページ
METAR-TAF:

METAR-TAF

空港 :

メキシコシティ, メキシコ

メキシコ・シティ国際空港

緯度: 19-26N, 経度: 099-06W, 海抜: 2238m

現時点の気象観測

当レポートは28分前の22:52(UTC)に作成
の風 4kt
気温 26°C
湿度 30%
気圧 1023 hPa
視程: 9.7km
高度2000ftの雲は散在している, 塔状積雲.
高度8000ftの雲は散在している

METAR: MMMX 272252Z 10004KT 6SM SCT020TCU SCT080 26/07 A3020 NOSIG RMK 8/260 HZY

時間: 18:20 (23:20 UTC)

予報

当レポートは6時間5分前の17:15(UTC)に作成
予報は27日の 18時(UTC)から 28日の 24時(UTC)まで有効
西の風 5kt
視程: 10km
高度2000ftの雲は散在している
高度20000ftの千切れ雲あり
27日の 2100時(UTC)から
南東の風 12kt
視程: 10km
高度3000ftの千切れ雲あり
高度25000ftの千切れ雲あり
27日の 22時(UTC)から 28日の 02時(UTC)まで一時的に
視程: 8.0km
高度2000ftの千切れ雲あり, 積乱雲.
激しい雷雨, 雨
28日の 0200時(UTC)から
の風 kt
視程: 8.0km
高度2000ftの千切れ雲あり, 積乱雲.
高度7000ftの曇り
28日の 0400時(UTC)から
の風 kt
視程: 10km
高度3000ftの千切れ雲あり
28日の 1400時(UTC)から
の風 kt
視程: 8.0km
高度2500ftの雲は散在している
煙霧
28日の 2200時(UTC)から
南東の風 12kt
視程: 8.0km
高度2500ftの千切れ雲あり, 積乱雲.
激しい雷雨, 雨

TAF: MMMX 271715Z 2718/2824 26005KT P6SM SCT020 BKN200 TX28/2721Z TN16/2812Z FM272100 14012KT P6SM BKN030 BKN250 TEMPO 2722/2802 5SM TSRA BKN020CB FM280200 00000KT 5SM RA BKN020CB OVC070 FM280400 00000KT P6SM BKN030 FM281400 00000KT 5SM HZ SCT025 FM282200 14012KT 5SM TSRA BKN025CB

4,000以上の空港の気象観測と天気予報(METAR報とTAF報)

利用可能な観測所は地図上に黄色い丸と赤い丸で示す。

丸の上にカーソルを重ねると観測所名を参照できる。

次にクリックすると気象観測と天気予報を参照できる。

マップの切り替え:黒色「×」印の緑ボタンをクリックして拡大、「-」印の緑ボタンをクリックして縮小、緑色の三角印をクリックして隣りの地図に切り替え


METAR-TAF: